Time;durP1;ratioP1;P1;durP2;ratioP2;P2;SDS_P1;SDS_P2;PMS_P1;PMS_P2;Temp;Humidity;BMP_temperature;BMP_pressure;BME280_temperature;BME280_humidity;BME280_pressure;Samples;Min_cycle;Max_cycle;Signal;HPM_P1;HPM_P2
2023/12/31 00:01:27;;;;;;;4.07;1.80;;;10.30;1.00;;;;;;5087835;28;20534;-85
2023/12/31 00:03:49;;;;;;;3.67;1.90;;;10.30;1.00;;;;;;5084414;28;20615;-87
2023/12/31 00:06:15;;;;;;;4.27;2.10;;;10.20;1.00;;;;;;5084055;28;20195;-88
2023/12/31 00:08:44;;;;;;;3.40;1.97;;;10.30;1.00;;;;;;5085409;28;20208;-88
2023/12/31 00:11:10;;;;;;;2.77;1.60;;;10.30;1.00;;;;;;5083126;28;20167;-88
2023/12/31 00:13:35;;;;;;;4.17;1.93;;;10.20;1.00;;;;;;5085771;28;20180;-88
2023/12/31 00:16:01;;;;;;;3.37;1.77;;;10.30;1.00;;;;;;5082865;28;20190;-88
2023/12/31 00:18:27;;;;;;;3.13;1.70;;;10.30;1.00;;;;;;5082177;28;20207;-88
2023/12/31 00:20:53;;;;;;;4.67;1.90;;;10.20;1.00;;;;;;5081943;28;20228;-89
2023/12/31 00:23:18;;;;;;;3.20;1.67;;;10.20;1.00;;;;;;5085015;28;20192;-84
2023/12/31 00:25:44;;;;;;;5.90;1.90;;;10.20;1.00;;;;;;5085210;28;20647;-88
2023/12/31 00:28:10;;;;;;;4.80;1.60;;;10.20;1.00;;;;;;5085728;28;20640;-85
2023/12/31 00:30:35;;;;;;;3.40;2.00;;;10.20;1.00;;;;;;5083005;28;20180;-86
2023/12/31 00:33:01;;;;;;;3.40;1.70;;;10.20;1.00;;;;;;5074483;28;20203;-86
2023/12/31 00:35:27;;;;;;;5.33;1.97;;;10.20;1.00;;;;;;5074813;28;20263;-85
2023/12/31 00:37:53;;;;;;;4.73;2.10;;;10.20;1.00;;;;;;5074684;28;20304;-84
2023/12/31 00:40:19;;;;;;;3.17;1.70;;;10.20;1.00;;;;;;5074496;28;20658;-85
2023/12/31 00:42:44;;;;;;;2.83;1.90;;;10.20;1.00;;;;;;5075382;28;20172;-88
2023/12/31 00:45:10;;;;;;;2.70;1.63;;;10.10;1.00;;;;;;5074184;28;20186;-84
2023/12/31 00:47:36;;;;;;;4.13;1.90;;;10.10;1.00;;;;;;5074545;28;20271;-85
2023/12/31 00:50:02;;;;;;;2.33;1.67;;;10.20;1.00;;;;;;5077572;28;20172;-83
2023/12/31 00:52:27;;;;;;;3.70;1.97;;;10.20;1.00;;;;;;5074379;28;20187;-86
2023/12/31 00:54:53;;;;;;;2.60;1.83;;;10.30;1.00;;;;;;5075041;28;20160;-88
2023/12/31 00:57:19;;;;;;;3.53;1.57;;;10.20;1.00;;;;;;5073834;28;20637;-88
2023/12/31 00:59:44;;;;;;;2.67;1.70;;;10.20;1.00;;;;;;5074701;28;20173;-84
2023/12/31 01:02:10;;;;;;;3.43;1.63;;;10.20;1.00;;;;;;5073955;28;20531;-88
2023/12/31 01:04:36;;;;;;;3.37;1.90;;;10.20;1.00;;;;;;5073711;28;20710;-86
2023/12/31 01:07:02;;;;;;;3.80;1.90;;;10.20;1.00;;;;;;5073426;28;20173;-85
2023/12/31 01:09:28;;;;;;;7.50;4.43;;;10.20;1.00;;;;;;5072492;28;20267;-85
2023/12/31 01:11:54;;;;;;;4.73;1.77;;;10.20;1.00;;;;;;5073275;28;20318;-86
2023/12/31 01:14:19;;;;;;;3.53;1.80;;;10.30;1.00;;;;;;5073585;28;20206;-87
2023/12/31 01:16:45;;;;;;;2.47;1.30;;;10.20;1.00;;;;;;5073684;28;20683;-85
2023/12/31 01:19:11;;;;;;;4.33;2.23;;;10.30;1.00;;;;;;5073211;28;20168;-85
2023/12/31 01:21:36;;;;;;;3.37;1.87;;;10.30;1.00;;;;;;5073382;28;20267;-84
2023/12/31 01:24:03;;;;;;;5.80;1.83;;;10.30;1.00;;;;;;5073302;28;20201;-87
2023/12/31 01:26:29;;;;;;;2.77;1.60;;;10.20;1.00;;;;;;5072621;28;20306;-85
2023/12/31 01:28:55;;;;;;;2.90;2.00;;;10.20;1.00;;;;;;5074407;28;20319;-86
2023/12/31 01:31:21;;;;;;;3.73;2.20;;;10.20;1.00;;;;;;5071722;28;20704;-87
2023/12/31 01:33:47;;;;;;;3.20;1.70;;;10.30;1.00;;;;;;5073414;28;20184;-87
2023/12/31 01:36:16;;;;;;;2.30;1.47;;;10.30;1.00;;;;;;5073275;28;20731;-86
2023/12/31 01:38:45;;;;;;;3.07;1.77;;;10.30;1.00;;;;;;5072123;28;20204;-87
2023/12/31 01:41:11;;;;;;;3.67;1.60;;;10.30;1.00;;;;;;5072280;28;20183;-85
2023/12/31 01:43:37;;;;;;;4.27;1.70;;;10.30;1.00;;;;;;5073313;28;20183;-88
2023/12/31 01:46:05;;;;;;;2.87;1.50;;;10.30;1.00;;;;;;5071746;28;20168;-87
2023/12/31 01:48:32;;;;;;;3.13;1.60;;;10.30;1.00;;;;;;5072480;28;20200;-85
2023/12/31 01:50:57;;;;;;;3.67;1.70;;;10.30;1.00;;;;;;5073181;28;20169;-88
2023/12/31 01:53:24;;;;;;;3.10;1.60;;;10.30;1.00;;;;;;5072744;28;20169;-85
2023/12/31 01:55:50;;;;;;;2.60;1.67;;;10.30;1.00;;;;;;5071754;28;20263;-87
2023/12/31 01:58:18;;;;;;;2.93;1.93;;;10.40;1.00;;;;;;5072990;28;20199;-85
2023/12/31 02:00:43;;;;;;;4.37;1.90;;;10.40;1.00;;;;;;5071972;28;20173;-85
2023/12/31 02:03:10;;;;;;;2.53;1.60;;;10.40;1.00;;;;;;5071488;28;20179;-84
2023/12/31 02:05:36;;;;;;;3.17;1.70;;;10.30;1.00;;;;;;5072631;28;20713;-84
2023/12/31 02:08:02;;;;;;;2.47;1.57;;;10.40;1.00;;;;;;5074133;28;20180;-84
2023/12/31 02:10:28;;;;;;;3.17;1.53;;;10.40;1.00;;;;;;5072871;28;20164;-85
2023/12/31 02:12:55;;;;;;;4.37;2.30;;;10.40;1.00;;;;;;5073773;28;20185;-86
2023/12/31 02:15:34;;;;;;;5.40;1.90;;;10.40;1.00;;;;;;5073273;28;20667;-86
2023/12/31 02:18:02;;;;;;;3.53;1.57;;;10.40;1.00;;;;;;5073291;28;20664;-87
2023/12/31 02:20:31;;;;;;;3.83;1.80;;;10.40;1.00;;;;;;5072730;28;20591;-84
2023/12/31 02:22:58;;;;;;;3.03;1.60;;;10.40;1.00;;;;;;5072553;28;20172;-85
2023/12/31 02:25:26;;;;;;;2.40;1.70;;;10.50;1.00;;;;;;5072004;28;20192;-87
2023/12/31 02:27:52;;;;;;;2.90;1.87;;;10.50;1.00;;;;;;5072317;28;20559;-85
2023/12/31 02:30:19;;;;;;;4.77;1.60;;;10.50;1.00;;;;;;5073227;28;20164;-86
2023/12/31 02:32:45;;;;;;;4.33;1.97;;;10.40;1.00;;;;;;5072043;28;20176;-88
2023/12/31 02:35:10;;;;;;;3.93;1.90;;;10.50;1.00;;;;;;5073670;28;20174;-87
2023/12/31 02:37:36;;;;;;;3.90;2.00;;;10.50;1.00;;;;;;5071630;28;20306;-85
2023/12/31 02:40:02;;;;;;;3.50;2.00;;;10.50;1.00;;;;;;5072671;28;20176;-86
2023/12/31 02:42:28;;;;;;;3.63;1.80;;;10.40;1.00;;;;;;5072478;28;20213;-87
2023/12/31 02:44:53;;;;;;;2.60;1.80;;;10.50;1.00;;;;;;5072558;28;20176;-87
2023/12/31 02:47:19;;;;;;;4.43;2.30;;;10.50;1.00;;;;;;5071456;28;20322;-84
2023/12/31 02:49:44;;;;;;;2.53;1.77;;;10.50;1.00;;;;;;5071475;28;20267;-84
2023/12/31 02:52:11;;;;;;;2.53;1.80;;;10.50;1.00;;;;;;5071816;28;20696;-87
2023/12/31 02:54:37;;;;;;;3.77;1.83;;;10.60;1.00;;;;;;5071921;28;20173;-86
2023/12/31 02:57:07;;;;;;;3.30;1.63;;;10.60;1.00;;;;;;5072124;28;20307;-86
2023/12/31 02:59:33;;;;;;;2.33;1.40;;;10.50;1.00;;;;;;5072765;28;20169;-85
2023/12/31 03:01:59;;;;;;;2.37;1.50;;;10.50;1.00;;;;;;5071538;28;20168;-86
2023/12/31 03:04:25;;;;;;;3.40;2.40;;;10.50;1.00;;;;;;5073083;28;20826;-83
2023/12/31 03:06:53;;;;;;;3.50;2.30;;;10.60;1.00;;;;;;5070862;28;20542;-88
2023/12/31 03:09:21;;;;;;;3.60;1.60;;;10.50;1.00;;;;;;5070822;28;20172;-86
2023/12/31 03:11:47;;;;;;;2.33;1.63;;;10.60;1.00;;;;;;5072886;28;20160;-84
2023/12/31 03:14:14;;;;;;;1.70;1.40;;;10.60;1.00;;;;;;5070929;28;20179;-86
2023/12/31 03:16:44;;;;;;;2.80;1.60;;;10.60;1.00;;;;;;5071780;28;20199;-87
2023/12/31 03:19:14;;;;;;;2.70;1.57;;;10.60;1.00;;;;;;5073376;28;20176;-84
2023/12/31 03:21:40;;;;;;;3.23;1.80;;;10.60;1.00;;;;;;5075812;28;20655;-86
2023/12/31 03:24:08;;;;;;;2.33;1.47;;;10.60;1.00;;;;;;5075969;28;20300;-85
2023/12/31 03:26:34;;;;;;;2.60;1.77;;;10.70;1.00;;;;;;5075230;28;20326;-87
2023/12/31 03:28:59;;;;;;;2.40;1.50;;;10.60;1.00;;;;;;5075150;28;20260;-85
2023/12/31 03:31:25;;;;;;;1.93;1.50;;;10.60;1.00;;;;;;5075643;28;20176;-86
2023/12/31 03:33:52;;;;;;;3.30;2.00;;;10.60;1.00;;;;;;5077215;28;20279;-85
2023/12/31 03:36:17;;;;;;;2.50;1.70;;;10.60;1.00;;;;;;5075632;28;20241;-86
2023/12/31 03:38:43;;;;;;;2.77;1.70;;;10.60;1.00;;;;;;5075642;28;20176;-87
2023/12/31 03:41:09;;;;;;;2.73;1.70;;;10.60;1.00;;;;;;5076030;28;20218;-85
2023/12/31 03:43:34;;;;;;;2.70;1.90;;;10.60;1.00;;;;;;5075435;28;20181;-88
2023/12/31 03:46:00;;;;;;;2.07;1.57;;;10.70;1.00;;;;;;5076113;28;20368;-85
2023/12/31 03:48:26;;;;;;;2.77;1.90;;;10.70;1.00;;;;;;5074830;28;20664;-87
2023/12/31 03:50:52;;;;;;;4.03;2.00;;;10.60;1.00;;;;;;5075219;28;20262;-88
2023/12/31 03:53:18;;;;;;;4.00;1.83;;;10.60;1.00;;;;;;5075781;28;20176;-87
2023/12/31 03:55:44;;;;;;;3.07;2.20;;;10.60;1.00;;;;;;5074841;28;20542;-86
2023/12/31 03:58:10;;;;;;;3.87;2.27;;;10.60;1.00;;;;;;5074970;28;20229;-86
2023/12/31 04:00:35;;;;;;;2.40;1.80;;;10.60;1.00;;;;;;5075385;28;20263;-85
2023/12/31 04:03:02;;;;;;;3.43;1.90;;;10.60;1.00;;;;;;5075718;28;20530;-86
2023/12/31 04:05:29;;;;;;;2.80;2.03;;;10.70;1.00;;;;;;5074982;28;20179;-86
2023/12/31 04:07:55;;;;;;;3.30;2.10;;;10.70;1.00;;;;;;5075426;28;20294;-84
2023/12/31 04:10:21;;;;;;;3.63;1.93;;;10.70;1.00;;;;;;5074656;28;20851;-87
2023/12/31 04:12:46;;;;;;;2.70;1.87;;;10.70;1.00;;;;;;5074463;28;20271;-84
2023/12/31 04:15:12;;;;;;;3.37;2.10;;;10.70;1.00;;;;;;5073356;28;20180;-85
2023/12/31 04:17:38;;;;;;;2.97;2.23;;;10.70;1.00;;;;;;5073322;28;20310;-85
2023/12/31 04:20:05;;;;;;;3.03;2.07;;;10.70;1.00;;;;;;5072939;28;20306;-87
2023/12/31 04:22:31;;;;;;;4.07;2.23;;;10.70;1.00;;;;;;5073164;28;20795;-85
2023/12/31 04:24:57;;;;;;;2.50;1.83;;;10.70;1.00;;;;;;5079862;28;20195;-88
2023/12/31 04:27:23;;;;;;;4.00;2.30;;;10.70;1.00;;;;;;5093925;28;20548;-84
2023/12/31 04:29:49;;;;;;;2.60;1.90;;;10.70;1.00;;;;;;5092874;28;20537;-86
2023/12/31 04:32:15;;;;;;;2.93;2.03;;;10.80;1.00;;;;;;5095470;28;20171;-87
2023/12/31 04:34:40;;;;;;;2.63;1.83;;;10.70;1.00;;;;;;5094550;28;20692;-85
2023/12/31 04:37:06;;;;;;;2.53;1.93;;;10.70;1.00;;;;;;5094452;28;20561;-86
2023/12/31 04:39:32;;;;;;;4.03;2.13;;;10.80;1.00;;;;;;5095007;28;20606;-86
2023/12/31 04:41:57;;;;;;;3.60;2.13;;;10.80;1.00;;;;;;5095463;28;20175;-85
2023/12/31 04:44:23;;;;;;;3.57;2.20;;;10.80;1.00;;;;;;5094838;28;20506;-86
2023/12/31 04:46:48;;;;;;;3.37;2.17;;;10.80;1.00;;;;;;5094882;28;20639;-86
2023/12/31 04:49:15;;;;;;;3.30;2.20;;;10.80;1.00;;;;;;5093899;28;20172;-87
2023/12/31 04:51:42;;;;;;;2.57;1.83;;;10.90;1.00;;;;;;5095936;28;20226;-87
2023/12/31 04:54:07;;;;;;;3.47;2.00;;;10.90;1.00;;;;;;5094655;28;20199;-85
2023/12/31 04:56:33;;;;;;;3.30;1.90;;;10.90;1.00;;;;;;5094183;28;20663;-84
2023/12/31 04:59:00;;;;;;;3.50;2.00;;;10.90;1.00;;;;;;5099743;28;20167;-87
2023/12/31 05:01:31;;;;;;;2.60;1.80;;;10.90;1.00;;;;;;5108154;28;20185;-84
2023/12/31 05:03:58;;;;;;;2.77;2.20;;;11.00;1.00;;;;;;5106600;28;20194;-84
2023/12/31 05:06:24;;;;;;;3.17;2.10;;;10.90;1.00;;;;;;5109675;28;20238;-85
2023/12/31 05:08:50;;;;;;;5.23;2.03;;;10.90;1.00;;;;;;5107860;28;20168;-83
2023/12/31 05:11:16;;;;;;;3.07;2.30;;;10.90;1.00;;;;;;5098590;28;20175;-85
2023/12/31 05:13:43;;;;;;;2.27;1.77;;;10.90;1.00;;;;;;5094099;28;20538;-87
2023/12/31 05:16:15;;;;;;;3.40;1.80;;;10.90;1.00;;;;;;5093504;28;20199;-87
2023/12/31 05:18:53;;;;;;;2.37;1.83;;;11.00;1.00;;;;;;5093638;28;20173;-88
2023/12/31 05:21:19;;;;;;;2.70;1.73;;;11.00;1.00;;;;;;5094028;28;20175;-87
2023/12/31 05:23:45;;;;;;;3.13;1.77;;;11.00;1.00;;;;;;5094339;28;20277;-84
2023/12/31 05:26:11;;;;;;;2.47;1.77;;;11.00;1.00;;;;;;5093305;28;20193;-84
2023/12/31 05:28:37;;;;;;;3.63;1.80;;;11.00;1.00;;;;;;5092866;28;20165;-84
2023/12/31 05:31:04;;;;;;;3.30;2.10;;;11.00;1.00;;;;;;5093335;28;20636;-86
2023/12/31 05:33:29;;;;;;;3.00;2.00;;;11.10;1.00;;;;;;5093532;28;20655;-87
2023/12/31 05:35:55;;;;;;;2.03;1.47;;;11.10;1.00;;;;;;5093774;28;20175;-86
2023/12/31 05:38:21;;;;;;;2.60;1.80;;;11.10;1.00;;;;;;5093260;28;20184;-86
2023/12/31 05:40:46;;;;;;;2.60;1.70;;;11.10;1.00;;;;;;5093761;28;20633;-87
2023/12/31 05:43:12;;;;;;;2.57;1.80;;;11.20;1.00;;;;;;5092869;28;20176;-84
2023/12/31 05:45:38;;;;;;;3.20;1.70;;;11.20;1.00;;;;;;5093770;28;20172;-85
2023/12/31 05:48:05;;;;;;;3.43;1.97;;;11.20;1.00;;;;;;5094428;28;20177;-86
2023/12/31 05:50:30;;;;;;;1.90;1.50;;;11.30;1.00;;;;;;5094101;28;20640;-88
2023/12/31 05:52:56;;;;;;;2.27;1.80;;;11.30;1.00;;;;;;5092638;28;20175;-87
2023/12/31 05:55:22;;;;;;;4.37;1.77;;;11.30;1.00;;;;;;5091787;28;20174;-85
2023/12/31 05:57:48;;;;;;;2.23;1.80;;;11.40;1.00;;;;;;5092614;28;20315;-84
2023/12/31 06:00:14;;;;;;;2.30;1.67;;;11.50;1.00;;;;;;5093289;28;20207;-83
2023/12/31 06:02:40;;;;;;;2.53;1.63;;;11.50;1.00;;;;;;5092249;28;20183;-85
2023/12/31 06:05:06;;;;;;;2.83;1.63;;;11.40;1.00;;;;;;5092899;28;20179;-85
2023/12/31 06:07:32;;;;;;;3.17;1.77;;;11.40;1.00;;;;;;5091554;28;20532;-84
2023/12/31 06:09:58;;;;;;;2.00;1.50;;;11.50;1.00;;;;;;5092531;28;20187;-85
2023/12/31 06:12:25;;;;;;;2.60;1.50;;;11.50;1.00;;;;;;5092530;28;20176;-86
2023/12/31 06:14:51;;;;;;;3.30;1.63;;;11.50;1.00;;;;;;5093273;28;20171;-85
2023/12/31 06:17:17;;;;;;;2.57;1.50;;;11.50;1.00;;;;;;5092584;28;20233;-85
2023/12/31 06:19:43;;;;;;;3.27;1.50;;;11.50;1.00;;;;;;5092299;28;20688;-89
2023/12/31 06:22:08;;;;;;;2.20;1.70;;;11.50;1.00;;;;;;5092814;28;20212;-85
2023/12/31 06:24:34;;;;;;;2.93;1.73;;;11.50;1.00;;;;;;5091017;28;20195;-86
2023/12/31 06:27:00;;;;;;;2.53;1.67;;;11.50;1.00;;;;;;5091555;28;20176;-86
2023/12/31 06:29:26;;;;;;;1.90;1.47;;;11.60;1.00;;;;;;5091879;28;20175;-86
2023/12/31 06:31:52;;;;;;;3.53;1.63;;;11.50;1.00;;;;;;5092244;28;20171;-86
2023/12/31 06:34:18;;;;;;;2.30;1.30;;;11.50;1.00;;;;;;5093059;28;20176;-87
2023/12/31 06:36:43;;;;;;;2.33;1.73;;;11.50;1.00;;;;;;5091504;28;20712;-85
2023/12/31 06:39:12;;;;;;;3.13;1.80;;;11.50;1.00;;;;;;5092199;28;20268;-87
2023/12/31 06:41:38;;;;;;;2.17;1.57;;;11.60;1.00;;;;;;5092500;28;20557;-86
2023/12/31 06:44:04;;;;;;;3.27;1.47;;;11.60;1.00;;;;;;5091577;28;20169;-86
2023/12/31 06:46:29;;;;;;;3.00;1.57;;;11.60;1.00;;;;;;5090724;28;20650;-86
2023/12/31 06:48:56;;;;;;;2.70;1.60;;;11.60;1.00;;;;;;5090349;28;20218;-87
2023/12/31 06:51:22;;;;;;;2.83;1.63;;;11.50;1.00;;;;;;5091725;28;20174;-84
2023/12/31 06:53:48;;;;;;;3.27;1.90;;;11.50;1.00;;;;;;5091733;28;20254;-84
2023/12/31 06:56:13;;;;;;;2.33;1.50;;;11.50;1.00;;;;;;5091520;28;20214;-83
2023/12/31 06:58:39;;;;;;;2.23;1.40;;;11.50;1.00;;;;;;5091348;28;20690;-84
2023/12/31 07:01:05;;;;;;;2.13;1.43;;;11.50;1.00;;;;;;5091067;28;20170;-84
2023/12/31 07:03:31;;;;;;;2.00;1.37;;;11.50;1.00;;;;;;5092707;28;20165;-84
2023/12/31 07:05:57;;;;;;;1.77;1.40;;;11.50;1.00;;;;;;5091737;28;20179;-83
2023/12/31 07:08:23;;;;;;;1.47;1.27;;;11.50;1.00;;;;;;5089947;28;20168;-84
2023/12/31 07:10:53;;;;;;;1.90;1.33;;;11.50;1.00;;;;;;5091147;28;20179;-83
2023/12/31 07:13:19;;;;;;;3.37;1.67;;;11.40;1.00;;;;;;5091335;28;20173;-83
2023/12/31 07:15:45;;;;;;;2.23;1.30;;;11.40;1.00;;;;;;5091018;28;20178;-87
2023/12/31 07:18:11;;;;;;;2.77;1.17;;;11.30;1.00;;;;;;5090636;28;20176;-84
2023/12/31 07:20:37;;;;;;;1.70;1.30;;;11.40;1.00;;;;;;5091567;28;20175;-85
2023/12/31 07:23:03;;;;;;;2.13;1.27;;;11.30;1.00;;;;;;5092096;28;20187;-84
2023/12/31 07:25:30;;;;;;;1.60;1.30;;;11.30;1.00;;;;;;5092173;28;20201;-84
2023/12/31 07:27:56;;;;;;;1.77;1.30;;;11.30;1.00;;;;;;5091595;28;20268;-85
2023/12/31 07:30:22;;;;;;;2.63;1.70;;;11.30;1.00;;;;;;5091732;28;20718;-87
2023/12/31 07:32:48;;;;;;;1.87;1.30;;;11.20;1.00;;;;;;5090932;28;20176;-84
2023/12/31 07:35:13;;;;;;;1.80;1.23;;;11.20;1.00;;;;;;5091817;28;20564;-84
2023/12/31 07:37:39;;;;;;;1.80;1.37;;;11.10;1.00;;;;;;5091504;28;20257;-84
2023/12/31 07:40:08;;;;;;;1.87;1.20;;;11.00;1.00;;;;;;5090401;28;20176;-83
2023/12/31 07:42:35;;;;;;;1.57;1.30;;;10.90;1.00;;;;;;5090881;28;20263;-83
2023/12/31 07:45:05;;;;;;;2.60;1.47;;;10.90;1.00;;;;;;5091103;28;20632;-85
2023/12/31 07:47:35;;;;;;;1.87;1.40;;;10.80;1.00;;;;;;5090535;28;20258;-87
2023/12/31 07:50:07;;;;;;;1.77;1.30;;;10.80;1.00;;;;;;5091589;28;20172;-86
2023/12/31 07:52:33;;;;;;;2.70;1.30;;;10.70;1.00;;;;;;5093203;28;20196;-87
2023/12/31 07:54:59;;;;;;;2.10;1.20;;;10.80;1.00;;;;;;5090452;28;20176;-84
2023/12/31 07:57:25;;;;;;;3.20;1.27;;;10.70;1.00;;;;;;5090426;28;20216;-85
2023/12/31 07:59:51;;;;;;;1.53;1.30;;;10.70;1.00;;;;;;5090938;28;20691;-83
2023/12/31 08:02:16;;;;;;;3.13;1.27;;;10.70;1.00;;;;;;5091729;28;20172;-86
2023/12/31 08:04:42;;;;;;;1.87;0.90;;;10.60;1.00;;;;;;5094014;28;20511;-87
2023/12/31 08:07:08;;;;;;;1.80;1.13;;;10.60;1.00;;;;;;5094613;28;20679;-86
2023/12/31 08:09:34;;;;;;;1.83;1.10;;;10.50;1.00;;;;;;5096265;28;20171;-87
2023/12/31 08:11:59;;;;;;;2.77;1.10;;;10.50;1.00;;;;;;5094978;28;20171;-85
2023/12/31 08:14:25;;;;;;;2.70;1.13;;;10.50;1.00;;;;;;5095318;28;20644;-85
2023/12/31 08:16:51;;;;;;;4.60;1.00;;;10.50;1.00;;;;;;5094832;28;20192;-88
2023/12/31 08:19:17;;;;;;;1.33;1.00;;;10.40;1.00;;;;;;5094727;28;20202;-88
2023/12/31 08:21:43;;;;;;;1.67;1.00;;;10.50;1.00;;;;;;5094626;28;20226;-85
2023/12/31 08:24:08;;;;;;;2.07;1.13;;;10.40;1.00;;;;;;5094988;28;20188;-86
2023/12/31 08:26:36;;;;;;;1.67;1.00;;;10.40;1.00;;;;;;5094858;28;20188;-85
2023/12/31 08:29:02;;;;;;;2.10;1.10;;;10.30;1.00;;;;;;5094370;28;20193;-85
2023/12/31 08:31:28;;;;;;;2.30;0.90;;;10.30;1.00;;;;;;5093561;28;20180;-85
2023/12/31 08:33:54;;;;;;;3.33;1.00;;;10.30;1.00;;;;;;5094474;28;20575;-85
2023/12/31 08:36:21;;;;;;;2.17;1.10;;;10.40;1.00;;;;;;5094305;28;20203;-86
2023/12/31 08:38:46;;;;;;;2.63;1.07;;;10.30;1.00;;;;;;5093915;28;20255;-88
2023/12/31 08:41:12;;;;;;;2.13;1.20;;;10.30;1.00;;;;;;5094225;28;20250;-87
2023/12/31 08:43:38;;;;;;;4.00;1.77;;;10.30;1.00;;;;;;5093951;28;20592;-87
2023/12/31 08:46:03;;;;;;;4.10;1.40;;;10.30;1.00;;;;;;5094320;28;20550;-85
2023/12/31 08:48:29;;;;;;;3.73;1.30;;;10.30;1.00;;;;;;5093923;28;20167;-84
2023/12/31 08:50:55;;;;;;;2.47;1.10;;;10.30;1.00;;;;;;5093633;28;20167;-83
2023/12/31 08:53:21;;;;;;;3.20;0.90;;;10.30;1.00;;;;;;5093974;28;20175;-84
2023/12/31 08:55:48;;;;;;;3.17;1.30;;;10.30;1.00;;;;;;5094614;28;20180;-84
2023/12/31 08:58:14;;;;;;;2.03;0.90;;;10.30;1.00;;;;;;5093014;28;20192;-84
2023/12/31 09:00:40;;;;;;;2.80;1.00;;;10.30;1.00;;;;;;5093244;28;20175;-85
2023/12/31 09:03:06;;;;;;;2.77;0.83;;;10.30;1.00;;;;;;5093194;28;20229;-84
2023/12/31 09:05:32;;;;;;;3.13;1.17;;;10.30;1.00;;;;;;5093375;28;20183;-84
2023/12/31 09:07:58;;;;;;;5.30;1.07;;;10.40;1.00;;;;;;5093765;28;20534;-84
2023/12/31 09:10:25;;;;;;;4.40;1.40;;;10.30;1.00;;;;;;5093084;28;20171;-84
2023/12/31 09:12:51;;;;;;;3.87;1.47;;;10.30;1.00;;;;;;5091771;28;20176;-83
2023/12/31 09:15:17;;;;;;;2.23;1.00;;;10.30;1.00;;;;;;5092498;28;20182;-84
2023/12/31 09:17:43;;;;;;;2.47;1.37;;;10.30;1.00;;;;;;5093713;28;20218;-84
2023/12/31 09:20:15;;;;;;;2.57;1.30;;;10.30;1.00;;;;;;5093591;28;20270;-85
2023/12/31 09:22:41;;;;;;;3.70;1.30;;;10.20;1.00;;;;;;5094001;28;20577;-85
2023/12/31 09:25:09;;;;;;;2.13;1.30;;;10.30;1.00;;;;;;5093442;28;20213;-89
2023/12/31 09:27:41;;;;;;;2.37;1.13;;;10.20;1.00;;;;;;5093335;28;20229;-87
2023/12/31 09:30:07;;;;;;;2.03;0.90;;;10.10;1.00;;;;;;5093403;28;20221;-85
2023/12/31 09:32:39;;;;;;;4.33;1.67;;;10.10;1.00;;;;;;5094839;28;20168;-86
2023/12/31 09:35:05;;;;;;;3.60;1.50;;;10.00;1.00;;;;;;5092292;28;20179;-86
2023/12/31 09:37:32;;;;;;;3.37;1.40;;;10.00;1.00;;;;;;5093315;28;20662;-86
2023/12/31 09:39:57;;;;;;;3.70;1.47;;;10.00;1.00;;;;;;5088121;28;20617;-87
2023/12/31 09:42:33;;;;;;;4.10;1.90;;;10.00;1.00;;;;;;5080335;28;20217;-87
2023/12/31 09:45:05;;;;;;;5.07;1.67;;;9.90;1.00;;;;;;5072615;28;20176;-85
2023/12/31 09:47:37;;;;;;;4.20;1.40;;;10.00;1.00;;;;;;5073262;28;20176;-88
2023/12/31 09:50:04;;;;;;;3.37;1.70;;;10.00;1.00;;;;;;5073553;28;20215;-84
2023/12/31 09:52:31;;;;;;;2.63;1.23;;;10.10;1.00;;;;;;5073199;28;20179;-86
2023/12/31 09:54:58;;;;;;;3.47;1.80;;;10.10;1.00;;;;;;5072750;28;20176;-87
2023/12/31 09:57:48;;;;;;;4.40;1.60;;;10.10;1.00;;;;;;5071482;28;20220;-87
2023/12/31 10:00:15;;;;;;;4.17;1.73;;;10.20;1.00;;;;;;5067110;28;20180;-87
2023/12/31 10:02:43;;;;;;;4.03;1.83;;;10.20;1.00;;;;;;5077949;28;20180;-86
2023/12/31 10:05:10;;;;;;;5.23;1.50;;;10.20;1.00;;;;;;5082729;28;20620;-85
2023/12/31 10:07:39;;;;;;;3.63;1.53;;;10.20;1.00;;;;;;5084720;28;20174;-85
2023/12/31 10:13:14;;;;;;;4.63;1.30;;;10.00;1.00;;;;;;5074881;28;20176;-89
2023/12/31 10:15:45;;;;;;;4.03;1.27;;;10.20;1.00;;;;;;5083746;28;20181;-87
2023/12/31 10:18:13;;;;;;;1.73;1.10;;;10.20;1.00;;;;;;5088792;28;20306;-88
2023/12/31 10:20:39;;;;;;;3.00;1.10;;;10.10;1.00;;;;;;5092342;28;20198;-87
2023/12/31 10:23:05;;;;;;;3.60;1.03;;;10.20;1.00;;;;;;5085762;28;20585;-87
2023/12/31 10:25:30;;;;;;;1.30;0.83;;;10.20;1.00;;;;;;5073782;28;20191;-86
2023/12/31 10:27:57;;;;;;;4.23;1.03;;;10.20;1.00;;;;;;5081720;28;20274;-87
2023/12/31 10:30:23;;;;;;;2.70;1.10;;;10.10;1.00;;;;;;5081823;28;20178;-88
2023/12/31 10:32:49;;;;;;;2.53;1.13;;;10.10;1.00;;;;;;5082832;28;20168;-87
2023/12/31 10:35:24;;;;;;;2.17;1.10;;;10.10;1.00;;;;;;5083202;28;20255;-87
2023/12/31 10:38:03;;;;;;;3.17;1.30;;;10.10;1.00;;;;;;5091174;28;20211;-89
2023/12/31 10:40:33;;;;;;;2.63;0.90;;;10.10;1.00;;;;;;5095089;28;20216;-93
2023/12/31 10:42:59;;;;;;;2.33;0.87;;;10.10;1.00;;;;;;5103449;28;20171;-93
2023/12/31 10:45:29;;;;;;;3.47;1.10;;;10.10;1.00;;;;;;5102774;28;20632;-95
2023/12/31 10:48:04;;;;;;;2.97;1.30;;;10.00;1.00;;;;;;5093702;28;20637;-90
2023/12/31 10:50:31;;;;;;;2.63;1.20;;;10.00;1.00;;;;;;5091445;28;20175;-89
2023/12/31 10:53:07;;;;;;;3.47;1.20;;;10.00;1.00;;;;;;5093742;28;20175;-88
2023/12/31 10:55:34;;;;;;;4.90;1.50;;;10.00;1.00;;;;;;5093523;28;20270;-90
2023/12/31 10:58:01;;;;;;;3.50;1.30;;;10.00;1.00;;;;;;5092489;28;20221;-85
2023/12/31 11:00:28;;;;;;;4.30;1.33;;;10.00;1.00;;;;;;5092213;28;20171;-85
2023/12/31 11:02:58;;;;;;;5.73;1.30;;;10.00;1.00;;;;;;5091739;28;20214;-88
2023/12/31 11:05:25;;;;;;;4.63;1.20;;;9.90;1.00;;;;;;5086508;28;20176;-85
2023/12/31 11:07:52;;;;;;;4.30;1.93;;;9.90;1.00;;;;;;5086188;28;20194;-87
2023/12/31 11:10:19;;;;;;;3.50;1.50;;;9.90;1.00;;;;;;5091763;28;20175;-84
2023/12/31 11:12:48;;;;;;;5.73;1.60;;;9.90;1.00;;;;;;5092018;28;20164;-87
2023/12/31 11:15:18;;;;;;;5.23;1.37;;;9.90;1.00;;;;;;5092132;28;20176;-85
2023/12/31 11:18:08;;;;;;;6.40;1.53;;;9.90;1.00;;;;;;5091851;28;20247;-87
2023/12/31 11:20:40;;;;;;;4.30;1.30;;;10.00;1.00;;;;;;5091389;28;20176;-85
2023/12/31 11:23:29;;;;;;;7.97;1.67;;;10.00;1.00;;;;;;5091430;28;20233;-84
2023/12/31 11:25:57;;;;;;;3.07;1.20;;;9.90;1.00;;;;;;5091688;28;20215;-91
2023/12/31 11:28:26;;;;;;;3.40;1.50;;;10.00;1.00;;;;;;5085933;28;20222;-87
2023/12/31 11:30:57;;;;;;;3.90;1.57;;;9.90;1.00;;;;;;5080959;28;20179;-86
2023/12/31 11:33:31;;;;;;;2.47;1.20;;;9.90;1.00;;;;;;5087269;28;20719;-89
2023/12/31 11:36:01;;;;;;;3.97;1.40;;;9.90;1.00;;;;;;5072368;28;20176;-86
2023/12/31 11:38:27;;;;;;;2.50;1.47;;;10.00;1.00;;;;;;5072091;28;20184;-86
2023/12/31 11:40:56;;;;;;;4.43;1.50;;;10.00;1.00;;;;;;5076405;28;20652;-90
2023/12/31 11:43:31;;;;;;;3.07;1.10;;;10.00;1.00;;;;;;5077494;28;20185;-85
2023/12/31 11:45:57;;;;;;;4.83;1.63;;;10.10;1.00;;;;;;5087268;28;20180;-86
2023/12/31 11:48:25;;;;;;;4.07;1.50;;;10.10;1.00;;;;;;5075150;28;20191;-90
2023/12/31 11:50:53;;;;;;;3.90;1.60;;;10.10;1.00;;;;;;5077619;28;20179;-85
2023/12/31 11:53:22;;;;;;;7.53;2.00;;;10.00;1.00;;;;;;5076985;28;20234;-89
2023/12/31 11:55:57;;;;;;;5.10;1.30;;;10.10;1.00;;;;;;5074241;28;20207;-89
2023/12/31 11:58:25;;;;;;;4.97;1.40;;;10.10;1.00;;;;;;5074801;28;20180;-83
2023/12/31 12:00:51;;;;;;;4.67;1.80;;;10.00;1.00;;;;;;5075215;28;20176;-86
2023/12/31 12:03:18;;;;;;;5.07;1.80;;;10.10;1.00;;;;;;5074804;28;20638;-85
2023/12/31 12:05:50;;;;;;;5.57;1.63;;;10.10;1.00;;;;;;5074837;28;20178;-88
2023/12/31 12:08:16;;;;;;;5.43;1.80;;;10.10;1.00;;;;;;5076115;28;20173;-84
2023/12/31 12:10:43;;;;;;;4.97;1.73;;;10.10;1.00;;;;;;5074821;28;20180;-89
2023/12/31 12:13:08;;;;;;;6.37;1.93;;;10.10;1.00;;;;;;5075011;28;20176;-85
2023/12/31 12:15:35;;;;;;;7.33;2.00;;;10.20;1.00;;;;;;5074381;28;20168;-87
2023/12/31 12:18:12;;;;;;;9.70;2.37;;;10.20;1.00;;;;;;5074878;28;20208;-89
2023/12/31 12:20:37;;;;;;;6.87;1.90;;;10.20;1.00;;;;;;5073774;28;20168;-87
2023/12/31 12:23:05;;;;;;;7.67;2.10;;;10.30;1.00;;;;;;5074902;28;20172;-84
2023/12/31 12:25:31;;;;;;;7.83;1.80;;;10.40;1.00;;;;;;5073941;28;20192;-84
2023/12/31 12:27:58;;;;;;;7.90;2.07;;;10.30;1.00;;;;;;5075434;28;20192;-90
2023/12/31 12:30:27;;;;;;;6.37;1.97;;;10.30;1.00;;;;;;5073818;28;20176;-84
2023/12/31 12:32:54;;;;;;;5.90;1.90;;;10.40;1.00;;;;;;5074626;28;20168;-85
2023/12/31 12:35:21;;;;;;;7.30;1.90;;;10.50;1.00;;;;;;5074096;28;20631;-85
2023/12/31 12:37:47;;;;;;;7.53;2.50;;;10.60;1.00;;;;;;5078304;28;20222;-87
2023/12/31 12:40:17;;;;;;;5.90;2.20;;;10.60;1.00;;;;;;5087896;28;20538;-88
2023/12/31 12:42:47;;;;;;;6.80;2.03;;;10.60;1.00;;;;;;5081862;28;20187;-85
2023/12/31 12:45:13;;;;;;;7.43;2.07;;;10.60;1.00;;;;;;5084926;28;20184;-86
2023/12/31 12:47:42;;;;;;;11.03;2.20;;;10.70;1.00;;;;;;5085620;28;20180;-86
2023/12/31 12:50:09;;;;;;;7.33;2.37;;;10.60;1.00;;;;;;5083411;28;20171;-86
2023/12/31 12:52:34;;;;;;;11.13;2.30;;;10.60;1.00;;;;;;5084950;28;20236;-86
2023/12/31 12:55:00;;;;;;;5.73;2.17;;;10.60;1.00;;;;;;5084833;28;20171;-88
2023/12/31 12:57:27;;;;;;;7.30;2.30;;;10.50;1.00;;;;;;5085794;28;20229;-84
2023/12/31 12:59:52;;;;;;;7.60;2.07;;;10.60;1.00;;;;;;5087106;28;20179;-88